Time;durP1;ratioP1;P1;durP2;ratioP2;P2;SDS_P1;SDS_P2;PMS_P1;PMS_P2;Temp;Humidity;BMP_temperature;BMP_pressure;BME280_temperature;BME280_humidity;BME280_pressure;Samples;Min_cycle;Max_cycle;Signal;HPM_P1;HPM_P2
2022/03/20 00:01:02;;;;;;;;;;;;;;;-4.75;74.78;102024.44;1680610;85;20131;-69
2022/03/20 00:03:29;;;;;;;;;;;;;;;-4.74;74.85;102025.63;1680554;85;20120;-68
2022/03/20 00:05:56;;;;;;;;;;;;;;;-4.72;75.07;102026.81;1680630;85;20115;-68
2022/03/20 00:08:23;;;;;;;;;;;;;;;-4.74;75.33;102022.11;1680687;85;20127;-69
2022/03/20 00:10:50;;;;;;;;;;;;;;;-4.76;75.47;102020.92;1680675;85;21149;-69
2022/03/20 00:13:19;;;;;;;;;;;;;;;-4.76;75.37;102020.92;1680517;85;20115;-68
2022/03/20 00:15:50;;;;;;;;;;;;;;;-4.74;74.82;102018.93;1680676;85;20127;-69
2022/03/20 00:18:20;;;;;;;;;;;;;;;-4.68;74.49;102014.78;1653090;86;20122;-68
2022/03/20 00:20:48;;;;;;;;;;;;;;;-4.66;74.44;102010.95;1680567;85;20127;-68
2022/03/20 00:23:16;;;;;;;;;;;;;;;-4.68;74.30;102018.30;1680547;85;21320;-68
2022/03/20 00:25:44;;;;;;;;;;;;;;;-4.72;74.56;102014.25;1680546;85;20143;-68
2022/03/20 00:28:12;;;;;;;;;;;;;;;-4.75;75.16;102009.70;1689144;84;20145;-68
2022/03/20 00:30:40;;;;;;;;;;;;;;;-4.81;75.59;102004.47;1694056;84;20097;-68
2022/03/20 00:33:07;;;;;;;;;;;;;;;-4.83;75.78;102006.95;1691142;84;20145;-70
2022/03/20 00:35:36;;;;;;;;;;;;;;;-4.87;76.09;102003.75;1694416;84;21167;-70
2022/03/20 00:38:04;;;;;;;;;;;;;;;-4.89;76.10;102000.88;1694265;84;20109;-74
2022/03/20 00:40:31;;;;;;;;;;;;;;;-4.92;74.95;102002.03;1694275;84;20192;-70
2022/03/20 00:42:58;;;;;;;;;;;;;;;-4.85;73.50;101999.08;1689913;84;20113;-68
2022/03/20 00:45:26;;;;;;;;;;;;;;;-4.77;73.79;102000.48;1693770;84;20145;-68
2022/03/20 00:47:53;;;;;;;;;;;;;;;-4.76;74.44;101993.28;1697299;81;21245;-68
2022/03/20 00:50:20;;;;;;;;;;;;;;;-4.78;74.70;101989.91;1745564;82;20265;-68
2022/03/20 00:52:47;;;;;;;;;;;;;;;-4.81;75.06;101993.75;1745249;82;20113;-68
2022/03/20 00:55:14;;;;;;;;;;;;;;;-4.83;75.14;101990.88;1745543;82;20111;-68
2022/03/20 00:57:41;;;;;;;;;;;;;;;-4.83;74.75;101985.02;1746817;82;20195;-68
2022/03/20 01:00:09;;;;;;;;;;;;;;;-4.78;74.11;101991.26;1746050;82;21241;-68
2022/03/20 01:02:40;;;;;;;;;;;;;;;-4.73;72.69;101993.81;1745171;82;20154;-69
2022/03/20 01:05:08;;;;;;;;;;;;;;;-4.70;71.74;101996.18;1741537;82;20093;-68
2022/03/20 01:07:36;;;;;;;;;;;;;;;-4.61;71.11;101994.86;1745979;82;20111;-68
2022/03/20 01:10:04;;;;;;;;;;;;;;;-4.53;70.44;101989.06;1745515;82;20069;-69
2022/03/20 01:12:33;;;;;;;;;;;;;;;-4.45;69.89;101984.25;1745132;82;20160;-68
2022/03/20 01:15:02;;;;;;;;;;;;;;;-4.38;69.39;101990.66;1744656;82;20113;-68
2022/03/20 01:17:30;;;;;;;;;;;;;;;-4.35;69.09;101989.84;1746819;82;20112;-68
2022/03/20 01:19:58;;;;;;;;;;;;;;;-4.35;68.84;101987.16;1746807;82;20083;-69
2022/03/20 01:22:26;;;;;;;;;;;;;;;-4.39;68.69;101993.00;1745210;82;20097;-69
2022/03/20 01:24:53;;;;;;;;;;;;;;;-4.43;68.84;101988.45;1744835;82;21311;-69
2022/03/20 01:27:20;;;;;;;;;;;;;;;-4.48;68.62;101983.23;1746172;82;20075;-69
2022/03/20 01:29:48;;;;;;;;;;;;;;;-4.52;68.24;101980.52;1744874;82;20137;-69
2022/03/20 01:32:16;;;;;;;;;;;;;;;-4.53;68.16;101985.54;1745387;82;20089;-69
2022/03/20 01:34:44;;;;;;;;;;;;;;;-4.54;68.80;101986.53;1744084;82;20081;-69
2022/03/20 01:37:11;;;;;;;;;;;;;;;-4.56;69.04;101980.49;1744886;82;21911;-70
2022/03/20 01:39:38;;;;;;;;;;;;;;;-4.55;68.79;101980.34;1746386;82;20097;-68
2022/03/20 01:42:06;;;;;;;;;;;;;;;-4.57;68.66;101980.15;1745588;82;20085;-68
2022/03/20 01:44:34;;;;;;;;;;;;;;;-4.61;68.21;101982.80;1745605;82;20430;-71
2022/03/20 01:47:05;;;;;;;;;;;;;;;-4.67;68.20;101982.47;1742747;82;20158;-69
2022/03/20 01:49:32;;;;;;;;;;;;;;;-4.68;68.66;101987.48;1744342;81;21800;-69
2022/03/20 01:52:11;;;;;;;;;;;;;;;-4.70;68.55;101988.14;1741724;82;20474;-68
2022/03/20 01:54:44;;;;;;;;;;;;;;;-4.65;67.89;101982.30;1744127;82;20115;-68
2022/03/20 01:57:20;;;;;;;;;;;;;;;-4.52;67.64;101985.87;1744315;82;20110;-68
2022/03/20 01:59:48;;;;;;;;;;;;;;;-4.45;67.10;101981.57;1742637;82;20084;-68
2022/03/20 02:02:16;;;;;;;;;;;;;;;-4.35;66.80;101986.33;1744140;82;21143;-68
2022/03/20 02:04:43;;;;;;;;;;;;;;;-4.29;66.42;101979.48;1744175;82;20071;-72
2022/03/20 02:07:11;;;;;;;;;;;;;;;-4.23;66.96;101978.34;1744066;82;20135;-67
2022/03/20 02:09:38;;;;;;;;;;;;;;;-4.23;66.99;101974.33;1735002;82;20089;-69
2022/03/20 02:12:06;;;;;;;;;;;;;;;-4.28;66.49;101973.96;1726453;82;20149;-69
2022/03/20 02:14:34;;;;;;;;;;;;;;;-4.35;66.36;101977.78;1713228;83;21117;-67
2022/03/20 02:17:04;;;;;;;;;;;;;;;-4.37;66.51;101977.09;1713511;83;20105;-73
2022/03/20 02:19:34;;;;;;;;;;;;;;;-4.37;66.44;101973.58;1714431;83;20098;-68
2022/03/20 02:22:01;;;;;;;;;;;;;;;-4.38;66.21;101970.55;1714558;83;20102;-71
2022/03/20 02:24:44;;;;;;;;;;;;;;;-4.40;66.31;101980.09;1714591;83;20098;-68
2022/03/20 02:27:16;;;;;;;;;;;;;;;-4.42;66.22;101971.37;1714468;83;21177;-68
2022/03/20 02:29:47;;;;;;;;;;;;;;;-4.45;66.41;101974.37;1714617;83;20421;-68
2022/03/20 02:32:16;;;;;;;;;;;;;;;-4.45;66.78;101978.89;1724216;82;20097;-75
2022/03/20 02:34:48;;;;;;;;;;;;;;;-4.49;67.22;101984.23;1714692;83;20097;-68
2022/03/20 02:37:13;;;;;;;;;;;;;;;-4.52;67.44;101977.84;1689407;85;20454;-67
2022/03/20 02:39:40;;;;;;;;;;;;;;;-4.56;67.57;101979.99;1693978;84;22067;-67
2022/03/20 02:42:08;;;;;;;;;;;;;;;-4.54;67.68;101988.72;1693952;84;20095;-67
2022/03/20 02:44:56;;;;;;;;;;;;;;;-4.50;67.56;101985.22;1694905;84;20096;-67
2022/03/20 02:47:25;;;;;;;;;;;;;;;-4.50;67.84;101981.20;1700964;84;20469;-66
2022/03/20 02:50:00;;;;;;;;;;;;;;;-4.54;68.49;101981.17;1706204;84;20461;-67
2022/03/20 02:52:29;;;;;;;;;;;;;;;-4.57;68.86;101984.17;1698357;84;21232;-66
2022/03/20 02:55:02;;;;;;;;;;;;;;;-4.61;69.48;101983.64;1743591;82;20143;-67
2022/03/20 02:57:29;;;;;;;;;;;;;;;-4.61;70.47;101977.44;1720485;82;20529;-68
2022/03/20 03:00:02;;;;;;;;;;;;;;;-4.61;70.01;101973.42;1745853;82;20095;-67
2022/03/20 03:02:32;;;;;;;;;;;;;;;-4.59;69.58;101972.77;1746806;82;20441;-68
2022/03/20 03:04:59;;;;;;;;;;;;;;;-4.55;70.62;101970.11;1746472;82;21231;-67
2022/03/20 03:07:32;;;;;;;;;;;;;;;-4.50;70.62;101974.50;1747333;82;20104;-66
2022/03/20 03:12:46;;;;;;;;;;;;;;;-4.54;69.74;101968.61;1747266;82;20105;-66
2022/03/20 03:15:19;;;;;;;;;;;;;;;-4.51;70.04;101970.14;1746925;82;20092;-67
2022/03/20 03:17:48;;;;;;;;;;;;;;;-4.44;69.97;101971.19;1747269;82;21607;-66
2022/03/20 03:20:21;;;;;;;;;;;;;;;-4.30;68.94;101960.38;1746833;82;20101;-67
2022/03/20 03:22:46;;;;;;;;;;;;;;;-4.24;68.18;101963.75;1744485;82;20094;-67
2022/03/20 03:25:13;;;;;;;;;;;;;;;-4.23;68.80;101955.55;1740297;82;20530;-68
2022/03/20 03:27:40;;;;;;;;;;;;;;;-4.23;68.66;101959.58;1746998;82;20134;-68
2022/03/20 03:30:09;;;;;;;;;;;;;;;-4.28;68.31;101953.84;1746828;82;21138;-68
2022/03/20 03:32:36;;;;;;;;;;;;;;;-4.40;68.43;101965.84;1717546;83;20232;-69
2022/03/20 03:37:49;;;;;;;;;;;;;;;-4.53;69.75;101960.07;1717336;83;20086;-69
2022/03/20 03:40:16;;;;;;;;;;;;;;;-4.60;70.05;101959.86;1717229;83;20093;-68
2022/03/20 03:42:43;;;;;;;;;;;;;;;-4.64;70.42;101959.87;1717305;83;22052;-68
2022/03/20 03:45:11;;;;;;;;;;;;;;;-4.68;71.32;101958.50;1717211;83;20157;-69
2022/03/20 03:47:40;;;;;;;;;;;;;;;-4.72;71.61;101959.31;1717496;83;20441;-69
2022/03/20 03:50:09;;;;;;;;;;;;;;;-4.76;71.81;101955.27;1717108;83;20094;-67
2022/03/20 03:52:37;;;;;;;;;;;;;;;-4.79;71.97;101954.23;1717302;83;20122;-68
2022/03/20 03:55:05;;;;;;;;;;;;;;;-4.81;72.23;101952.21;1718990;83;21058;-68
2022/03/20 03:57:32;;;;;;;;;;;;;;;-4.82;72.32;101956.39;1717238;83;20094;-68
2022/03/20 04:00:00;;;;;;;;;;;;;;;-4.85;72.48;101955.36;1718836;83;20082;-68
2022/03/20 04:02:27;;;;;;;;;;;;;;;-4.88;72.43;101955.67;1717392;83;20715;-68
2022/03/20 04:04:55;;;;;;;;;;;;;;;-4.88;72.85;101957.02;1717242;83;20106;-69
2022/03/20 04:07:23;;;;;;;;;;;;;;;-4.90;72.86;101949.13;1717257;83;21144;-74
2022/03/20 04:09:50;;;;;;;;;;;;;;;-4.87;72.73;101948.82;1717172;83;20114;-68
2022/03/20 04:12:18;;;;;;;;;;;;;;;-4.84;72.60;101940.97;1717282;83;20098;-69
2022/03/20 04:14:45;;;;;;;;;;;;;;;-4.76;72.41;101945.05;1717279;83;20114;-69
2022/03/20 04:17:12;;;;;;;;;;;;;;;-4.71;72.40;101945.41;1717052;83;20418;-69
2022/03/20 04:19:44;;;;;;;;;;;;;;;-4.67;71.91;101942.76;1717220;83;20118;-68
2022/03/20 04:22:12;;;;;;;;;;;;;;;-4.63;71.70;101946.80;1717251;83;20113;-68
2022/03/20 04:24:39;;;;;;;;;;;;;;;-4.58;71.61;101947.64;1717300;83;20118;-68
2022/03/20 04:27:08;;;;;;;;;;;;;;;-4.55;71.72;101940.62;1717213;83;20082;-68
2022/03/20 04:29:35;;;;;;;;;;;;;;;-4.51;71.35;101950.87;1717237;83;20110;-68
2022/03/20 04:32:03;;;;;;;;;;;;;;;-4.48;71.27;101947.03;1717285;83;21144;-68
2022/03/20 04:34:30;;;;;;;;;;;;;;;-4.43;71.20;101942.03;1717237;83;20094;-69
2022/03/20 04:36:57;;;;;;;;;;;;;;;-4.40;71.24;101942.55;1717299;83;20089;-66
2022/03/20 04:39:24;;;;;;;;;;;;;;;-4.35;71.24;101947.44;1717628;83;20097;-71
2022/03/20 04:41:53;;;;;;;;;;;;;;;-4.32;71.48;101943.94;1717303;83;20102;-69
2022/03/20 04:44:20;;;;;;;;;;;;;;;-4.28;71.76;101944.45;1695385;83;21240;-68
2022/03/20 04:46:49;;;;;;;;;;;;;;;-4.24;71.89;101952.53;1717076;83;20141;-69
2022/03/20 05:00:21;;;;;;;;;;;;;;;-4.07;71.22;101939.53;1712917;84;20118;-68
2022/03/20 05:02:49;;;;;;;;;;;;;;;-4.01;71.21;101945.55;1712901;83;20142;-68
2022/03/20 05:05:16;;;;;;;;;;;;;;;-3.94;71.76;101948.93;1712933;83;20724;-68
2022/03/20 05:07:44;;;;;;;;;;;;;;;-3.87;71.90;101951.30;1713149;83;20142;-68
2022/03/20 05:15:45;;;;;;;;;;;;;;;-3.60;71.49;101960.95;1713122;84;20094;-67
2022/03/20 05:18:12;;;;;;;;;;;;;;;-3.50;71.29;101957.61;1713011;83;20334;-67
2022/03/20 05:20:42;;;;;;;;;;;;;;;-3.42;71.24;101958.44;1713288;83;20437;-67
2022/03/20 05:23:10;;;;;;;;;;;;;;;-3.28;72.50;101964.16;1713096;83;21276;-67
2022/03/20 05:25:37;;;;;;;;;;;;;;;-3.10;71.98;101967.55;1712711;84;20118;-67
2022/03/20 05:28:04;;;;;;;;;;;;;;;-2.96;70.80;101964.69;1713072;83;20083;-68
2022/03/20 05:30:31;;;;;;;;;;;;;;;-2.84;70.06;101960.12;1712919;84;20134;-68
2022/03/20 05:33:00;;;;;;;;;;;;;;;-2.71;72.20;101968.52;1713107;83;20449;-67
2022/03/20 05:35:27;;;;;;;;;;;;;;;-2.53;69.76;101975.55;1713051;84;21112;-67
2022/03/20 05:37:54;;;;;;;;;;;;;;;-2.40;68.32;101967.79;1712870;83;20074;-68
2022/03/20 05:40:21;;;;;;;;;;;;;;;-2.25;67.14;101975.45;1713052;83;20165;-67
2022/03/20 05:42:48;;;;;;;;;;;;;;;-2.08;66.91;101964.97;1713046;84;20102;-67
2022/03/20 05:45:15;;;;;;;;;;;;;;;-1.90;65.23;101970.62;1713076;83;20097;-67
2022/03/20 05:47:43;;;;;;;;;;;;;;;-1.78;64.99;101966.53;1712911;83;21151;-67
2022/03/20 05:50:11;;;;;;;;;;;;;;;-1.68;62.75;101971.16;1712850;83;20456;-68
2022/03/20 05:52:38;;;;;;;;;;;;;;;-1.58;63.08;101965.55;1712961;84;20114;-67
2022/03/20 05:55:06;;;;;;;;;;;;;;;-1.47;62.58;101980.81;1713039;84;20154;-68
2022/03/20 06:00:25;;;;;;;;;;;;;;;-1.28;61.86;101978.68;1712951;83;21792;-67
2022/03/20 06:02:52;;;;;;;;;;;;;;;-1.16;62.38;101990.72;1712966;83;20106;-67
2022/03/20 06:05:22;;;;;;;;;;;;;;;-1.02;61.35;101987.22;1713149;83;20421;-68
2022/03/20 06:07:52;;;;;;;;;;;;;;;-0.90;60.50;101988.47;1713062;83;20094;-67
2022/03/20 06:10:19;;;;;;;;;;;;;;;-0.81;60.34;101986.55;1713433;83;20136;-67
2022/03/20 06:12:46;;;;;;;;;;;;;;;-0.69;60.75;101993.19;1712947;83;21109;-68
2022/03/20 06:15:13;;;;;;;;;;;;;;;-0.55;60.51;101986.12;1712946;84;20098;-67
2022/03/20 06:17:42;;;;;;;;;;;;;;;-0.43;59.84;101987.35;1713048;84;20094;-67
2022/03/20 06:20:09;;;;;;;;;;;;;;;-0.33;59.87;101996.02;1712900;84;20094;-67
2022/03/20 06:22:37;;;;;;;;;;;;;;;-0.22;59.04;101996.91;1713036;84;20109;-67
2022/03/20 06:25:09;;;;;;;;;;;;;;;-0.12;58.04;101992.08;1712951;83;21811;-65
2022/03/20 06:27:54;;;;;;;;;;;;;;;-0.03;58.18;101999.58;1712972;83;20425;-66
2022/03/20 06:30:21;;;;;;;;;;;;;;;0.03;59.06;102008.25;1712977;84;20157;-66
2022/03/20 06:32:48;;;;;;;;;;;;;;;0.13;59.02;102003.92;1713014;84;20082;-67
2022/03/20 06:35:17;;;;;;;;;;;;;;;0.23;59.02;102003.13;1713006;84;20113;-66
2022/03/20 06:37:46;;;;;;;;;;;;;;;0.35;58.86;101996.21;1713136;84;21864;-66
2022/03/20 06:40:15;;;;;;;;;;;;;;;0.49;59.30;101991.81;1712961;83;20090;-66
2022/03/20 06:42:44;;;;;;;;;;;;;;;0.64;58.46;101988.02;1713026;83;20094;-66
2022/03/20 06:45:14;;;;;;;;;;;;;;;0.77;58.73;101990.54;1712912;83;20094;-66
2022/03/20 06:47:42;;;;;;;;;;;;;;;0.89;57.43;101989.84;1712892;84;20150;-67
2022/03/20 06:50:11;;;;;;;;;;;;;;;1.02;57.94;101990.48;1712810;84;21294;-65
2022/03/20 06:52:39;;;;;;;;;;;;;;;1.15;56.83;101987.91;1713011;83;20134;-65
2022/03/20 06:55:08;;;;;;;;;;;;;;;1.30;56.46;101982.39;1712914;83;20090;-65
2022/03/20 06:57:38;;;;;;;;;;;;;;;1.47;55.62;101984.30;1693067;84;20094;-68
2022/03/20 07:00:06;;;;;;;;;;;;;;;1.64;55.41;101979.75;1692684;84;20094;-65
2022/03/20 07:02:35;;;;;;;;;;;;;;;1.80;53.17;101979.92;1712646;83;21102;-65
2022/03/20 07:05:02;;;;;;;;;;;;;;;1.90;53.37;101977.70;1712932;84;20133;-67
2022/03/20 07:07:30;;;;;;;;;;;;;;;2.04;52.79;101972.36;1713089;83;20425;-64
2022/03/20 07:09:58;;;;;;;;;;;;;;;2.19;53.25;101977.12;1712891;83;20356;-65
2022/03/20 07:12:25;;;;;;;;;;;;;;;2.28;53.29;101974.56;1712871;84;20117;-66
2022/03/20 07:14:54;;;;;;;;;;;;;;;2.44;51.28;101972.83;1703642;83;20161;-66
2022/03/20 07:17:24;;;;;;;;;;;;;;;2.59;51.79;101971.31;1712123;83;20121;-65
2022/03/20 07:19:51;;;;;;;;;;;;;;;2.85;51.35;101963.24;1712781;84;20403;-66
2022/03/20 07:22:20;;;;;;;;;;;;;;;3.25;50.63;101964.61;1712932;84;37681;-65
2022/03/20 07:24:48;;;;;;;;;;;;;;;3.72;49.92;101959.95;1712733;84;20167;-67
2022/03/20 07:29:59;;;;;;;;;;;;;;;4.87;48.53;101961.74;1710628;84;20110;-64
2022/03/20 07:32:26;;;;;;;;;;;;;;;5.51;47.44;101963.31;1712698;84;20102;-64
2022/03/20 07:34:54;;;;;;;;;;;;;;;5.98;43.94;101945.98;1712678;84;20471;-66
2022/03/20 07:37:21;;;;;;;;;;;;;;;6.20;44.42;101959.46;1688364;84;20088;-66
2022/03/20 07:39:50;;;;;;;;;;;;;;;6.39;43.53;101947.97;1689060;84;21330;-65
2022/03/20 07:42:23;;;;;;;;;;;;;;;6.59;42.73;101948.55;1691114;84;20129;-66
2022/03/20 07:44:49;;;;;;;;;;;;;;;6.82;41.89;101947.80;1664483;85;20104;-66
2022/03/20 07:47:21;;;;;;;;;;;;;;;7.00;40.46;101950.44;1684072;85;20133;-66
2022/03/20 07:49:48;;;;;;;;;;;;;;;7.15;41.01;101952.20;1684267;85;20093;-68
2022/03/20 07:52:18;;;;;;;;;;;;;;;7.35;39.87;101959.25;1714484;83;21867;-65
2022/03/20 07:54:47;;;;;;;;;;;;;;;7.58;39.90;101961.44;1717229;83;20089;-66
2022/03/20 07:57:15;;;;;;;;;;;;;;;8.00;39.29;101964.58;1715429;83;20149;-66
2022/03/20 07:59:44;;;;;;;;;;;;;;;8.33;37.27;101951.07;1717264;83;20133;-67
2022/03/20 08:02:12;;;;;;;;;;;;;;;8.44;36.66;101951.58;1716997;83;20338;-66
2022/03/20 08:04:42;;;;;;;;;;;;;;;8.50;36.68;101946.50;1716978;83;21868;-71
2022/03/20 08:07:13;;;;;;;;;;;;;;;8.57;35.54;101951.30;1717119;83;20417;-68
2022/03/20 08:09:40;;;;;;;;;;;;;;;8.62;35.49;101941.52;1717131;83;20097;-68
2022/03/20 08:12:09;;;;;;;;;;;;;;;8.58;35.09;101940.63;1717204;83;20150;-71
2022/03/20 08:14:39;;;;;;;;;;;;;;;8.56;35.66;101936.48;1717166;82;20169;-65
2022/03/20 08:17:08;;;;;;;;;;;;;;;8.86;35.20;101934.28;1716898;83;21120;-65
2022/03/20 08:19:38;;;;;;;;;;;;;;;9.22;35.24;101933.55;1717124;83;20114;-65
2022/03/20 08:22:06;;;;;;;;;;;;;;;9.40;34.13;101936.00;1720743;82;20157;-68
2022/03/20 08:24:35;;;;;;;;;;;;;;;9.51;34.11;101926.03;1716775;83;20085;-67
2022/03/20 08:27:03;;;;;;;;;;;;;;;9.69;33.78;101933.98;1717049;83;20128;-64
2022/03/20 08:29:31;;;;;;;;;;;;;;;9.90;33.00;101929.05;1717020;83;21149;-62
2022/03/20 08:31:59;;;;;;;;;;;;;;;9.99;32.84;101931.36;1717011;83;20172;-65
2022/03/20 08:34:27;;;;;;;;;;;;;;;10.13;31.22;101927.98;1716946;83;20459;-67
2022/03/20 08:36:56;;;;;;;;;;;;;;;10.25;31.34;101922.41;1717100;83;20105;-64
2022/03/20 08:39:23;;;;;;;;;;;;;;;10.40;30.84;101919.02;1717237;83;20105;-68
2022/03/20 08:41:52;;;;;;;;;;;;;;;10.38;31.41;101919.81;1733002;82;20134;-66
2022/03/20 08:44:19;;;;;;;;;;;;;;;10.32;30.49;101915.34;1768805;81;20125;-66
2022/03/20 08:46:46;;;;;;;;;;;;;;;10.42;30.83;101915.44;1772958;80;20419;-72
2022/03/20 08:49:13;;;;;;;;;;;;;;;10.52;31.06;101913.63;1772835;81;20511;-69
2022/03/20 08:51:40;;;;;;;;;;;;;;;10.53;30.96;101907.59;1770507;80;20408;-68
2022/03/20 08:54:08;;;;;;;;;;;;;;;10.52;30.69;101915.01;1768441;80;21232;-67
2022/03/20 08:56:35;;;;;;;;;;;;;;;10.67;30.34;101919.01;1768281;81;20117;-69
2022/03/20 08:59:02;;;;;;;;;;;;;;;10.82;28.96;101898.02;1768293;81;20105;-66
2022/03/20 09:01:30;;;;;;;;;;;;;;;10.95;29.82;101911.87;1768272;81;20081;-69
2022/03/20 09:03:57;;;;;;;;;;;;;;;11.20;29.35;101911.24;1768264;81;20113;-73
2022/03/20 09:06:25;;;;;;;;;;;;;;;11.32;29.20;101902.27;1768216;81;21779;-72
2022/03/20 09:08:53;;;;;;;;;;;;;;;11.55;29.34;101905.19;1768149;81;20136;-65
2022/03/20 09:11:23;;;;;;;;;;;;;;;11.83;28.52;101899.30;1747185;80;20076;-66
2022/03/20 09:13:50;;;;;;;;;;;;;;;12.04;28.10;101902.16;1742216;82;20084;-68
2022/03/20 09:19:07;;;;;;;;;;;;;;;12.25;27.28;101890.11;1742734;82;20071;-70
2022/03/20 09:21:37;;;;;;;;;;;;;;;12.39;27.25;101889.88;1744553;82;20111;-69
2022/03/20 09:24:05;;;;;;;;;;;;;;;12.44;27.89;101898.71;1743477;82;20122;-67
2022/03/20 09:26:32;;;;;;;;;;;;;;;12.66;26.68;101901.25;1744927;82;20207;-69
2022/03/20 09:29:00;;;;;;;;;;;;;;;12.68;26.17;101895.74;1745052;82;20160;-69
2022/03/20 09:31:31;;;;;;;;;;;;;;;12.71;25.84;101901.27;1744919;82;21259;-69
2022/03/20 09:33:58;;;;;;;;;;;;;;;12.87;24.93;101877.55;1744951;82;20083;-67
2022/03/20 09:36:25;;;;;;;;;;;;;;;13.09;25.33;101899.34;1744860;82;20099;-64
2022/03/20 09:38:53;;;;;;;;;;;;;;;13.23;25.08;101896.07;1744955;82;20126;-63
2022/03/20 09:41:21;;;;;;;;;;;;;;;13.28;25.24;101898.83;1744920;82;20115;-66
2022/03/20 09:43:50;;;;;;;;;;;;;;;13.38;27.27;101890.52;1744934;82;20091;-70
2022/03/20 09:46:16;;;;;;;;;;;;;;;13.50;25.69;101897.39;1744893;82;20430;-69
2022/03/20 09:48:46;;;;;;;;;;;;;;;13.41;25.41;101893.54;1744988;82;20439;-69
2022/03/20 09:51:14;;;;;;;;;;;;;;;13.42;24.94;101893.82;1732184;82;20168;-66
2022/03/20 09:53:42;;;;;;;;;;;;;;;13.52;25.52;101893.80;1728742;82;20118;-69
2022/03/20 09:56:12;;;;;;;;;;;;;;;13.51;25.70;101883.05;1730687;82;21207;-68
2022/03/20 09:58:39;;;;;;;;;;;;;;;13.55;25.55;101888.28;1714700;83;20158;-69
2022/03/20 10:01:06;;;;;;;;;;;;;;;13.65;24.49;101886.88;1714898;83;20093;-68
2022/03/20 10:03:34;;;;;;;;;;;;;;;13.53;24.10;101894.63;1714898;83;20086;-66
2022/03/20 10:06:17;;;;;;;;;;;;;;;13.46;25.26;101878.91;1731527;82;20166;-70
2022/03/20 10:09:05;;;;;;;;;;;;;;;13.65;25.05;101873.08;1732935;82;20095;-67
2022/03/20 10:11:32;;;;;;;;;;;;;;;13.87;24.52;101884.58;1729676;82;20158;-70
2022/03/20 10:14:16;;;;;;;;;;;;;;;13.87;24.00;101876.86;1727615;82;20145;-66
2022/03/20 10:17:04;;;;;;;;;;;;;;;13.78;24.66;101865.59;1727369;82;20638;-66
2022/03/20 10:19:31;;;;;;;;;;;;;;;13.65;24.16;101866.19;1734611;82;20210;-74
2022/03/20 10:22:10;;;;;;;;;;;;;;;13.38;24.25;101862.92;1742291;82;21156;-72
2022/03/20 10:24:40;;;;;;;;;;;;;;;13.27;24.57;101868.20;1743533;82;20441;-71
2022/03/20 10:27:09;;;;;;;;;;;;;;;13.39;24.86;101857.68;1743292;82;20127;-69
2022/03/20 10:29:40;;;;;;;;;;;;;;;13.57;24.76;101861.78;1733632;82;20103;-75
2022/03/20 10:32:08;;;;;;;;;;;;;;;13.82;24.31;101855.64;1743850;82;20083;-64
2022/03/20 10:35:03;;;;;;;;;;;;;;;13.93;24.24;101853.64;1741826;82;21115;-66
2022/03/20 10:37:46;;;;;;;;;;;;;;;14.04;25.11;101857.19;1714876;83;20485;-67
2022/03/20 10:40:17;;;;;;;;;;;;;;;14.03;24.75;101848.08;1734578;82;20107;-67
2022/03/20 10:43:03;;;;;;;;;;;;;;;14.17;24.78;101845.53;1744402;82;20163;-66
2022/03/20 10:45:30;;;;;;;;;;;;;;;14.14;24.37;101837.81;1744741;82;20099;-61
2022/03/20 10:48:01;;;;;;;;;;;;;;;13.99;25.33;101839.26;1717185;82;21193;-69
2022/03/20 10:50:28;;;;;;;;;;;;;;;14.11;24.91;101838.38;1723117;82;20100;-69
2022/03/20 10:53:08;;;;;;;;;;;;;;;14.27;24.38;101840.51;1737698;82;20112;-67
2022/03/20 10:55:37;;;;;;;;;;;;;;;14.41;24.50;101824.95;1737950;82;20075;-68
2022/03/20 10:58:20;;;;;;;;;;;;;;;14.49;24.75;101822.96;1738248;82;20104;-68
2022/03/20 11:00:47;;;;;;;;;;;;;;;14.60;24.83;101814.88;1738059;82;21094;-67
2022/03/20 11:03:15;;;;;;;;;;;;;;;14.72;24.37;101818.66;1738216;82;20099;-69
2022/03/20 11:05:44;;;;;;;;;;;;;;;14.70;23.37;101810.65;1745450;82;20489;-67
2022/03/20 11:08:12;;;;;;;;;;;;;;;14.67;23.69;101815.38;1739069;82;20125;-68
2022/03/20 11:10:39;;;;;;;;;;;;;;;14.76;23.59;101808.67;1740242;82;20115;-68
2022/03/20 11:13:06;;;;;;;;;;;;;;;14.81;23.50;101808.08;1746879;82;21192;-68
2022/03/20 11:15:37;;;;;;;;;;;;;;;14.75;23.80;101809.78;1746926;82;20099;-69
2022/03/20 11:18:04;;;;;;;;;;;;;;;14.62;23.56;101809.05;1741418;82;20121;-69
2022/03/20 11:20:34;;;;;;;;;;;;;;;14.53;24.14;101811.05;1717131;83;20115;-67
2022/03/20 11:23:04;;;;;;;;;;;;;;;14.64;23.99;101805.45;1737470;82;20095;-69
2022/03/20 11:25:33;;;;;;;;;;;;;;;14.77;23.63;101810.32;1746924;82;21159;-66
2022/03/20 11:28:01;;;;;;;;;;;;;;;14.79;23.90;101802.00;1746931;82;20118;-68
2022/03/20 11:30:33;;;;;;;;;;;;;;;14.96;24.03;101804.91;1746917;82;20099;-68
2022/03/20 11:33:00;;;;;;;;;;;;;;;14.94;23.25;101799.67;1746859;82;20122;-67
2022/03/20 11:35:30;;;;;;;;;;;;;;;14.92;22.74;101802.45;1746865;82;20099;-67
2022/03/20 11:37:59;;;;;;;;;;;;;;;15.06;23.15;101800.64;1747175;82;21108;-66
2022/03/20 11:40:31;;;;;;;;;;;;;;;15.15;23.18;101791.97;1723417;82;20094;-70
2022/03/20 11:43:19;;;;;;;;;;;;;;;15.04;23.53;101796.78;1717445;83;20129;-69
2022/03/20 11:46:34;;;;;;;;;;;;;;;15.16;23.00;101799.16;1717091;83;20125;-67
2022/03/20 11:49:21;;;;;;;;;;;;;;;15.40;21.77;101777.05;1723218;82;20125;-67
2022/03/20 11:51:55;;;;;;;;;;;;;;;15.39;22.93;101780.94;1735055;82;21797;-66
2022/03/20 11:54:43;;;;;;;;;;;;;;;15.23;23.21;101794.66;1744512;82;20138;-65
2022/03/20 11:57:29;;;;;;;;;;;;;;;15.00;22.77;101783.30;1744872;82;20099;-67
2022/03/20 11:59:58;;;;;;;;;;;;;;;14.91;23.27;101790.57;1742666;82;20081;-67
2022/03/20 12:02:41;;;;;;;;;;;;;;;14.94;23.12;101785.02;1739165;82;20117;-67
2022/03/20 12:05:37;;;;;;;;;;;;;;;14.95;22.83;101779.19;1739382;82;21129;-67
2022/03/20 12:08:24;;;;;;;;;;;;;;;15.07;23.12;101786.52;1713054;82;20178;-67
2022/03/20 12:11:03;;;;;;;;;;;;;;;15.25;22.17;101774.44;1739950;82;20119;-66
2022/03/20 12:13:50;;;;;;;;;;;;;;;15.56;21.80;101778.52;1742251;82;20152;-66
2022/03/20 12:16:46;;;;;;;;;;;;;;;15.72;21.33;101771.68;1740638;82;20110;-67
2022/03/20 12:19:14;;;;;;;;;;;;;;;15.63;21.17;101767.91;1737654;82;21255;-66
2022/03/20 12:21:58;;;;;;;;;;;;;;;15.55;21.64;101771.89;1738067;82;20097;-66
2022/03/20 12:24:39;;;;;;;;;;;;;;;15.58;21.81;101772.72;1734475;82;20119;-67
2022/03/20 12:27:26;;;;;;;;;;;;;;;15.75;21.45;101768.87;1742011;82;20099;-68
2022/03/20 12:29:57;;;;;;;;;;;;;;;15.86;20.88;101762.09;1737113;82;20093;-68
2022/03/20 12:32:25;;;;;;;;;;;;;;;15.88;21.21;101753.48;1735877;82;20683;-66
2022/03/20 12:35:04;;;;;;;;;;;;;;;15.90;20.12;101742.93;1744712;82;20492;-66
2022/03/20 12:37:37;;;;;;;;;;;;;;;15.92;21.18;101753.15;1744753;82;20095;-67
2022/03/20 12:40:10;;;;;;;;;;;;;;;16.18;20.47;101754.41;1744881;82;20092;-66
2022/03/20 12:42:39;;;;;;;;;;;;;;;16.33;21.27;101755.56;1744766;82;20144;-68
2022/03/20 12:45:08;;;;;;;;;;;;;;;16.27;20.73;101748.45;1731094;82;21174;-68
2022/03/20 12:47:35;;;;;;;;;;;;;;;16.31;20.38;101739.80;1720309;82;20460;-67
2022/03/20 12:50:09;;;;;;;;;;;;;;;16.60;20.50;101740.17;1712452;83;20089;-67
2022/03/20 12:52:37;;;;;;;;;;;;;;;16.73;20.27;101741.63;1715975;83;20125;-67
2022/03/20 12:55:09;;;;;;;;;;;;;;;16.67;19.81;101738.69;1717281;83;20158;-67
2022/03/20 12:57:47;;;;;;;;;;;;;;;16.66;19.74;101735.66;1717271;83;21171;-66
2022/03/20 13:00:25;;;;;;;;;;;;;;;16.62;20.01;101737.35;1717180;83;20110;-65
2022/03/20 13:03:08;;;;;;;;;;;;;;;16.58;19.82;101735.48;1717122;83;20499;-66
2022/03/20 13:05:38;;;;;;;;;;;;;;;16.54;19.62;101728.34;1717124;83;20117;-69
2022/03/20 13:08:09;;;;;;;;;;;;;;;16.60;19.79;101731.28;1716084;83;20117;-67
2022/03/20 13:10:38;;;;;;;;;;;;;;;16.78;20.09;101727.64;1717514;83;21228;-67
2022/03/20 13:13:06;;;;;;;;;;;;;;;16.90;21.08;101727.16;1717054;83;20464;-70
2022/03/20 13:15:38;;;;;;;;;;;;;;;17.10;19.57;101725.95;1716952;83;20459;-65
2022/03/20 13:18:06;;;;;;;;;;;;;;;17.20;19.41;101726.33;1725183;82;20071;-64
2022/03/20 13:20:38;;;;;;;;;;;;;;;17.16;19.67;101726.94;1720614;82;20166;-64
2022/03/20 13:23:07;;;;;;;;;;;;;;;17.22;19.72;101718.52;1730983;82;21848;-64